Time;durP1;ratioP1;P1;durP2;ratioP2;P2;SDS_P1;SDS_P2;PMS_P1;PMS_P2;Temp;Humidity;BMP_temperature;BMP_pressure;BME280_temperature;BME280_humidity;BME280_pressure;Samples;Min_cycle;Max_cycle;Signal;HPM_P1;HPM_P2
2023/12/15 00:00:25;;;;;;;15.07;10.87;;;;;;;3.56;100.00;101313.25;5050478;28;20683;-66
2023/12/15 00:02:50;;;;;;;13.07;9.60;;;;;;;3.66;100.00;101314.88;5040887;28;20691;-65
2023/12/15 00:05:16;;;;;;;13.50;10.60;;;;;;;3.69;100.00;101316.56;5060106;28;20182;-66
2023/12/15 00:07:41;;;;;;;15.47;10.03;;;;;;;3.78;100.00;101316.47;5065888;28;20207;-67
2023/12/15 00:10:07;;;;;;;15.07;10.63;;;;;;;3.78;100.00;101316.47;5062436;28;20695;-67
2023/12/15 00:12:32;;;;;;;14.10;10.80;;;;;;;3.88;100.00;101325.75;5086159;28;20670;-68
2023/12/15 00:14:57;;;;;;;17.03;11.83;;;;;;;3.97;100.00;101327.41;5053974;28;20175;-67
2023/12/15 00:17:23;;;;;;;14.00;10.67;;;;;;;3.91;100.00;101332.53;5070736;28;20548;-67
2023/12/15 00:19:48;;;;;;;16.40;11.77;;;;;;;4.08;100.00;101331.56;5054125;28;20288;-67
2023/12/15 00:22:13;;;;;;;14.50;11.13;;;;;;;4.08;100.00;101329.88;5045402;28;20601;-67
2023/12/15 00:24:39;;;;;;;13.97;11.20;;;;;;;4.24;100.00;101329.72;5063230;28;20282;-66
2023/12/15 00:27:04;;;;;;;16.37;11.47;;;;;;;3.95;100.00;101328.28;5070371;28;20561;-67
2023/12/15 00:29:29;;;;;;;15.90;12.07;;;;;;;4.11;100.00;101339.19;5071512;28;20173;-67
2023/12/15 00:31:54;;;;;;;16.03;12.50;;;;;;;4.02;100.00;101343.47;5054462;27;20229;-67
2023/12/15 00:34:20;;;;;;;15.37;11.73;;;;;;;3.80;100.00;101344.50;5072528;28;20198;-67
2023/12/15 00:36:45;;;;;;;13.70;10.87;;;;;;;4.02;100.00;101351.13;5070620;28;20176;-66
2023/12/15 00:39:11;;;;;;;16.53;12.40;;;;;;;4.03;100.00;101346.84;5060855;28;20586;-66
2023/12/15 00:41:36;;;;;;;13.57;11.27;;;;;;;4.11;100.00;101349.38;5071302;28;20696;-67
2023/12/15 00:44:05;;;;;;;13.60;10.83;;;;;;;4.17;100.00;101362.88;5068415;28;20192;-67
2023/12/15 00:46:30;;;;;;;13.60;11.17;;;;;;;4.32;100.00;101350.91;5070649;28;20183;-67
2023/12/15 00:48:57;;;;;;;14.63;11.20;;;;;;;4.46;100.00;101350.78;5056537;28;20200;-67
2023/12/15 00:51:22;;;;;;;12.70;10.57;;;;;;;4.51;100.00;101354.97;5037126;28;20221;-67
2023/12/15 00:53:47;;;;;;;13.77;10.47;;;;;;;4.60;100.00;101351.50;5065074;28;20650;-67
2023/12/15 00:56:12;;;;;;;13.33;10.70;;;;;;;4.57;100.00;101351.50;5064324;28;20184;-67
2023/12/15 00:58:38;;;;;;;14.10;9.73;;;;;;;4.72;100.00;101360.72;5050717;28;20195;-66
2023/12/15 01:01:03;;;;;;;14.03;11.30;;;;;;;4.66;100.00;101364.19;5047143;28;20262;-66
2023/12/15 01:03:30;;;;;;;14.40;10.87;;;;;;;4.74;100.00;101365.78;5049073;28;20199;-66
2023/12/15 01:05:55;;;;;;;12.70;10.47;;;;;;;4.81;100.00;101375.06;5053166;28;20649;-66
2023/12/15 01:08:20;;;;;;;11.87;10.20;;;;;;;4.80;100.00;101381.03;5062566;28;20289;-67
2023/12/15 01:10:46;;;;;;;13.50;10.17;;;;;;;4.75;100.00;101378.53;5047068;28;20551;-66
2023/12/15 01:13:11;;;;;;;11.27;9.83;;;;;;;4.82;100.00;101386.97;5061813;28;20260;-66
2023/12/15 01:15:36;;;;;;;11.73;9.70;;;;;;;4.82;100.00;101380.16;5066296;28;20181;-67
2023/12/15 01:18:02;;;;;;;12.30;9.30;;;;;;;4.88;100.00;101389.44;5046593;28;20628;-67
2023/12/15 01:20:27;;;;;;;12.50;9.93;;;;;;;4.84;100.00;101386.09;5045105;28;20235;-66
2023/12/15 01:22:52;;;;;;;13.57;10.70;;;;;;;4.79;100.00;101387.84;5064034;28;20266;-66
2023/12/15 01:25:17;;;;;;;14.43;10.37;;;;;;;4.79;100.00;101385.28;5051379;28;20185;-67
2023/12/15 01:27:42;;;;;;;13.53;11.40;;;;;;;4.77;100.00;101387.00;5050841;28;20723;-66
2023/12/15 01:30:08;;;;;;;13.13;11.17;;;;;;;4.80;100.00;101386.13;5042199;28;20185;-66
2023/12/15 01:32:33;;;;;;;15.30;12.20;;;;;;;4.82;100.00;101389.50;5049462;28;20189;-66
2023/12/15 01:34:59;;;;;;;15.40;11.33;;;;;;;4.78;100.00;101398.06;5051753;28;20193;-67
2023/12/15 01:37:24;;;;;;;15.63;11.07;;;;;;;4.86;100.00;101401.34;5051076;28;20272;-66
2023/12/15 01:39:50;;;;;;;14.80;11.83;;;;;;;4.89;100.00;101395.38;5050994;28;20233;-67
2023/12/15 01:42:15;;;;;;;15.73;11.77;;;;;;;5.03;100.00;101405.47;5057904;28;20564;-66
2023/12/15 01:44:41;;;;;;;15.90;12.87;;;;;;;4.83;100.00;101398.84;5051003;28;20640;-67
2023/12/15 01:47:10;;;;;;;18.43;13.07;;;;;;;4.82;100.00;101410.75;5050741;28;20182;-66
2023/12/15 01:49:35;;;;;;;15.13;12.23;;;;;;;4.88;100.00;101420.03;5050558;28;20243;-66
2023/12/15 01:52:00;;;;;;;16.00;12.80;;;;;;;4.87;100.00;101422.63;5043567;28;20225;-66
2023/12/15 01:54:25;;;;;;;16.20;12.37;;;;;;;4.73;100.00;101430.41;5058283;28;20185;-66
2023/12/15 01:56:51;;;;;;;15.33;12.77;;;;;;;4.82;100.00;101423.50;5045438;28;20186;-67
2023/12/15 01:59:17;;;;;;;15.40;12.40;;;;;;;4.75;100.00;101428.66;5057528;28;20896;-66
2023/12/15 02:01:42;;;;;;;15.57;12.20;;;;;;;4.81;100.00;101428.59;5053592;28;20311;-67
2023/12/15 02:04:07;;;;;;;15.80;12.40;;;;;;;4.69;100.00;101427.03;5053544;28;20176;-67
2023/12/15 02:06:33;;;;;;;16.83;12.43;;;;;;;4.80;100.00;101432.00;5066198;28;20222;-66
2023/12/15 02:08:58;;;;;;;15.37;12.80;;;;;;;4.83;100.00;101427.72;5070732;28;20279;-67
2023/12/15 02:11:23;;;;;;;15.67;11.93;;;;;;;4.57;100.00;101435.63;5065755;28;20224;-66
2023/12/15 02:13:48;;;;;;;18.73;12.20;;;;;;;4.42;100.00;101435.75;5070177;28;20549;-66
2023/12/15 02:16:14;;;;;;;15.87;11.97;;;;;;;4.37;100.00;101435.78;5058902;28;20200;-66
2023/12/15 02:18:39;;;;;;;15.10;12.53;;;;;;;4.32;100.00;101437.50;5073486;28;20258;-66
2023/12/15 02:21:04;;;;;;;14.77;12.27;;;;;;;4.47;100.00;101444.19;5071593;28;20223;-66
2023/12/15 02:23:30;;;;;;;20.73;12.33;;;;;;;4.47;100.00;101446.75;5081130;28;20207;-66
2023/12/15 02:25:55;;;;;;;15.60;12.13;;;;;;;4.63;100.00;101443.22;5074031;28;20187;-66
2023/12/15 02:28:20;;;;;;;15.87;12.13;;;;;;;4.69;100.00;101442.31;5057252;28;20235;-67
2023/12/15 02:30:46;;;;;;;15.90;12.33;;;;;;;4.67;100.00;101447.41;5064417;27;20251;-66
2023/12/15 02:33:11;;;;;;;15.77;12.33;;;;;;;4.66;100.00;101445.75;5071698;28;20314;-67
2023/12/15 02:35:37;;;;;;;16.03;11.90;;;;;;;4.77;100.00;101442.25;5053196;28;20177;-67
2023/12/15 02:38:07;;;;;;;13.67;10.87;;;;;;;4.77;100.00;101440.53;5052636;28;20200;-68
2023/12/15 02:40:33;;;;;;;15.97;12.10;;;;;;;4.71;100.00;101449.94;5045999;28;20349;-68
2023/12/15 02:42:59;;;;;;;15.87;11.87;;;;;;;4.68;100.00;101459.31;5052482;28;20229;-67
2023/12/15 02:45:24;;;;;;;14.33;10.33;;;;;;;4.45;100.00;101462.06;5052768;28;20262;-66
2023/12/15 02:47:49;;;;;;;16.50;11.73;;;;;;;4.61;100.00;101462.75;5053827;28;20676;-67
2023/12/15 02:50:14;;;;;;;12.43;10.37;;;;;;;4.44;100.00;101460.34;5046114;28;20188;-65
2023/12/15 02:52:39;;;;;;;13.63;11.27;;;;;;;4.55;100.00;101465.34;5067442;28;20235;-66
2023/12/15 02:55:05;;;;;;;15.10;11.37;;;;;;;4.54;100.00;101466.22;5055099;28;20546;-66
2023/12/15 02:57:31;;;;;;;15.17;11.30;;;;;;;4.27;100.00;101474.91;5054284;28;20181;-66
2023/12/15 02:59:56;;;;;;;13.10;10.43;;;;;;;4.47;100.00;101472.22;5048463;28;20187;-67
2023/12/15 03:02:21;;;;;;;16.33;11.20;;;;;;;4.30;100.00;101468.06;5048627;28;20221;-67
2023/12/15 03:04:47;;;;;;;14.57;11.50;;;;;;;4.27;100.00;101483.38;5056433;28;20191;-69
2023/12/15 03:07:12;;;;;;;14.30;11.33;;;;;;;4.07;100.00;101475.00;5073061;28;20187;-66
2023/12/15 03:09:37;;;;;;;13.73;10.60;;;;;;;3.86;100.00;101472.56;5054809;28;20259;-66
2023/12/15 03:12:03;;;;;;;13.97;10.83;;;;;;;3.69;100.00;101472.63;5059148;28;20231;-67
2023/12/15 03:14:28;;;;;;;13.90;10.77;;;;;;;3.73;100.00;101476.00;5071736;28;20187;-66
2023/12/15 03:16:53;;;;;;;15.40;10.87;;;;;;;3.78;100.00;101473.44;5072430;28;20186;-66
2023/12/15 03:19:19;;;;;;;15.57;10.93;;;;;;;3.83;100.00;101476.81;5068082;28;20263;-67
2023/12/15 03:21:44;;;;;;;12.77;9.93;;;;;;;3.86;100.00;101476.81;5045059;28;20238;-67
2023/12/15 03:24:09;;;;;;;14.43;10.93;;;;;;;3.69;100.00;101471.78;5059888;28;20176;-66
2023/12/15 03:26:34;;;;;;;14.27;10.30;;;;;;;3.84;100.00;101481.91;5071549;28;20183;-67
2023/12/15 03:29:00;;;;;;;14.40;10.70;;;;;;;3.81;100.00;101476.84;5067752;28;20565;-67
2023/12/15 03:31:25;;;;;;;15.60;11.80;;;;;;;3.63;100.00;101485.38;5054330;28;20348;-67
2023/12/15 03:33:50;;;;;;;15.63;11.23;;;;;;;3.60;100.00;101485.41;5058396;28;20186;-67
2023/12/15 03:36:15;;;;;;;13.27;10.67;;;;;;;3.84;100.00;101493.78;5053611;28;20527;-68
2023/12/15 03:38:41;;;;;;;15.57;10.43;;;;;;;4.03;100.00;101485.22;5052953;28;20180;-67
2023/12/15 03:41:06;;;;;;;15.13;10.20;;;;;;;4.02;100.00;101487.78;5051847;28;20227;-67
2023/12/15 03:43:31;;;;;;;12.03;9.13;;;;;;;3.91;100.00;101497.16;5051318;28;20181;-67
2023/12/15 03:45:56;;;;;;;11.43;8.93;;;;;;;4.14;100.00;101499.59;5053567;28;20271;-67
2023/12/15 03:48:22;;;;;;;9.20;8.07;;;;;;;4.27;100.00;101501.22;5054072;28;20538;-67
2023/12/15 03:50:47;;;;;;;8.90;7.10;;;;;;;4.30;100.00;101501.19;5049764;28;20235;-67
2023/12/15 03:53:12;;;;;;;8.27;6.83;;;;;;;4.36;100.00;101502.88;5063962;28;20186;-67
2023/12/15 03:55:37;;;;;;;9.60;7.23;;;;;;;4.37;100.00;101509.66;5054238;28;20177;-67
2023/12/15 03:58:03;;;;;;;9.90;7.90;;;;;;;4.39;100.00;101513.06;5055545;28;20189;-68
2023/12/15 04:00:28;;;;;;;10.53;7.53;;;;;;;4.43;100.00;101514.72;5047875;28;20291;-67
2023/12/15 04:02:53;;;;;;;8.40;7.20;;;;;;;4.49;100.00;101517.22;5052448;28;20188;-67
2023/12/15 04:05:20;;;;;;;8.77;7.23;;;;;;;4.48;100.00;101517.25;5063395;28;20636;-67
2023/12/15 04:07:45;;;;;;;10.03;6.50;;;;;;;4.48;100.00;101523.16;5054126;28;20532;-67
2023/12/15 04:10:10;;;;;;;10.50;6.50;;;;;;;4.42;100.00;101528.31;5043588;28;20188;-67
2023/12/15 04:12:36;;;;;;;9.60;6.40;;;;;;;4.49;100.00;101535.06;5050707;28;20345;-67
2023/12/15 04:15:01;;;;;;;8.67;7.10;;;;;;;4.48;100.00;101528.25;5052334;28;20191;-67
2023/12/15 04:17:26;;;;;;;6.87;6.17;;;;;;;4.39;100.00;101533.44;5051554;28;20181;-67
2023/12/15 04:19:52;;;;;;;7.17;6.47;;;;;;;4.42;100.00;101541.03;5052109;28;20571;-69
2023/12/15 04:22:19;;;;;;;8.40;6.13;;;;;;;4.53;100.00;101546.91;5058041;28;20311;-68
2023/12/15 04:24:44;;;;;;;9.33;6.33;;;;;;;4.60;100.00;101546.88;5052308;28;20239;-67
2023/12/15 04:27:09;;;;;;;8.33;6.47;;;;;;;4.69;100.00;101545.13;5051643;28;20174;-68
2023/12/15 04:29:34;;;;;;;6.63;6.03;;;;;;;4.69;100.00;101539.19;5052258;28;20668;-68
2023/12/15 04:32:00;;;;;;;7.83;6.53;;;;;;;4.69;100.00;101552.75;5006178;28;20339;-68
2023/12/15 04:34:25;;;;;;;8.27;6.80;;;;;;;4.75;100.00;101561.22;5040542;28;20180;-67
2023/12/15 04:36:50;;;;;;;7.13;6.10;;;;;;;4.72;100.00;101551.06;5051909;28;20235;-68
2023/12/15 04:39:16;;;;;;;7.37;6.27;;;;;;;4.45;100.00;101561.44;5051658;28;20215;-68
2023/12/15 04:41:41;;;;;;;7.77;6.40;;;;;;;4.15;100.00;101553.06;5054174;28;20232;-67
2023/12/15 04:44:06;;;;;;;9.67;7.00;;;;;;;4.12;100.00;101565.81;5054501;28;20176;-68
2023/12/15 04:46:31;;;;;;;7.57;5.70;;;;;;;4.20;100.00;101559.00;5065357;28;20227;-69
2023/12/15 04:48:59;;;;;;;5.93;5.33;;;;;;;4.42;100.00;101569.06;5071295;28;20605;-68
2023/12/15 04:51:25;;;;;;;8.80;6.40;;;;;;;4.17;100.00;101573.44;5062354;28;20253;-68
2023/12/15 04:53:51;;;;;;;8.60;6.50;;;;;;;4.28;100.00;101584.44;5076312;28;20576;-69
2023/12/15 04:56:16;;;;;;;7.77;5.97;;;;;;;4.27;100.00;101590.38;5070933;28;20579;-68
2023/12/15 04:58:42;;;;;;;7.23;5.87;;;;;;;4.39;100.00;101584.38;5070674;28;20180;-68
2023/12/15 05:01:13;;;;;;;6.80;6.10;;;;;;;4.38;100.00;101586.91;5063115;28;20333;-66
2023/12/15 05:03:39;;;;;;;8.23;6.27;;;;;;;4.33;100.00;101590.34;5070058;28;20184;-67
2023/12/15 05:06:05;;;;;;;7.70;6.50;;;;;;;4.54;100.00;101591.09;5067439;28;20180;-67
2023/12/15 05:08:30;;;;;;;7.33;6.57;;;;;;;4.59;100.00;101597.03;5050914;28;20564;-67
2023/12/15 05:10:55;;;;;;;6.93;5.97;;;;;;;4.68;100.00;101606.31;5048804;28;20712;-68
2023/12/15 05:13:20;;;;;;;10.03;6.70;;;;;;;4.70;100.00;101602.03;5060834;28;20178;-67
2023/12/15 05:15:46;;;;;;;8.47;6.27;;;;;;;4.62;100.00;101602.09;5052248;28;20629;-67
2023/12/15 05:18:11;;;;;;;11.00;6.90;;;;;;;4.55;100.00;101612.31;5050016;28;20550;-67
2023/12/15 05:20:38;;;;;;;8.27;7.07;;;;;;;4.38;100.00;101604.75;5045969;28;20335;-66
2023/12/15 05:23:04;;;;;;;8.57;7.10;;;;;;;4.31;100.00;101603.94;5062549;28;20180;-67
2023/12/15 05:25:29;;;;;;;9.37;7.93;;;;;;;4.44;100.00;101615.78;5052404;28;20209;-67
2023/12/15 05:27:55;;;;;;;9.60;7.70;;;;;;;4.32;100.00;101618.38;5070425;28;20645;-68
2023/12/15 05:30:20;;;;;;;10.00;7.43;;;;;;;4.31;100.00;101620.06;5063095;28;20622;-68
2023/12/15 05:32:45;;;;;;;9.20;7.43;;;;;;;4.13;100.00;101640.50;5069524;28;20192;-67
2023/12/15 05:35:10;;;;;;;9.27;7.23;;;;;;;4.11;100.00;101648.16;5070621;28;20562;-66
2023/12/15 05:37:36;;;;;;;8.30;7.17;;;;;;;4.39;100.00;101648.09;5070585;28;20178;-67
2023/12/15 05:40:01;;;;;;;10.53;8.07;;;;;;;4.57;100.00;101651.41;5070520;28;20203;-68
2023/12/15 05:42:26;;;;;;;12.50;9.13;;;;;;;4.58;100.00;101653.09;5071513;28;20228;-66
2023/12/15 05:44:52;;;;;;;12.33;10.17;;;;;;;4.30;100.00;101654.03;5065329;28;20270;-67
2023/12/15 05:47:17;;;;;;;11.73;8.80;;;;;;;4.32;100.00;101654.88;5056849;28;20200;-68
2023/12/15 05:49:43;;;;;;;13.63;8.23;;;;;;;4.35;100.00;101646.38;5070762;28;20184;-68
2023/12/15 05:52:11;;;;;;;12.37;8.27;;;;;;;4.27;100.00;101654.06;5052527;28;20239;-67
2023/12/15 05:54:40;;;;;;;9.00;7.70;;;;;;;4.30;100.00;101654.03;5065998;28;20254;-67
2023/12/15 05:57:06;;;;;;;10.80;8.67;;;;;;;4.45;100.00;101660.81;5072955;28;20202;-67
2023/12/15 05:59:31;;;;;;;8.93;7.77;;;;;;;4.43;100.00;101659.94;5073753;28;20251;-68
2023/12/15 06:01:56;;;;;;;9.20;7.97;;;;;;;4.58;100.00;101670.94;5078834;28;20284;-68
2023/12/15 06:04:22;;;;;;;13.10;8.67;;;;;;;4.66;100.00;101664.09;5074342;28;20183;-68
2023/12/15 06:06:47;;;;;;;11.00;9.53;;;;;;;4.62;100.00;101670.06;5065891;28;20225;-68
2023/12/15 06:09:12;;;;;;;9.93;8.73;;;;;;;4.59;100.00;101668.38;5054309;28;20203;-68
2023/12/15 06:11:41;;;;;;;11.33;9.00;;;;;;;4.48;100.00;101678.63;5056761;28;20224;-68
2023/12/15 06:14:07;;;;;;;11.50;9.17;;;;;;;4.57;100.00;101690.47;5067588;28;20191;-68
2023/12/15 06:16:32;;;;;;;12.20;8.80;;;;;;;4.51;100.00;101686.25;5073610;28;20206;-68
2023/12/15 06:18:58;;;;;;;12.33;9.10;;;;;;;4.29;100.00;101676.97;5073600;28;20632;-68
2023/12/15 06:21:25;;;;;;;12.50;9.37;;;;;;;4.26;100.00;101674.44;5066346;28;20228;-67
2023/12/15 06:23:51;;;;;;;10.70;9.23;;;;;;;4.29;100.00;101675.28;5068123;28;20207;-68
2023/12/15 06:26:26;;;;;;;12.17;8.03;;;;;;;4.03;100.00;101672.78;5065381;28;20197;-67
2023/12/15 06:28:55;;;;;;;11.70;9.47;;;;;;;3.94;100.00;101678.75;5053486;28;20201;-69
2023/12/15 06:31:21;;;;;;;14.03;9.93;;;;;;;4.02;100.00;101671.94;5054152;28;20677;-68
2023/12/15 06:33:47;;;;;;;12.77;9.57;;;;;;;3.93;100.00;101673.66;5059873;28;20184;-67
2023/12/15 06:36:12;;;;;;;12.63;9.93;;;;;;;3.72;100.00;101671.16;5054481;28;20238;-68
2023/12/15 06:38:42;;;;;;;13.43;10.23;;;;;;;3.89;100.00;101677.91;5053368;28;20201;-67
2023/12/15 06:41:09;;;;;;;16.47;10.67;;;;;;;3.99;100.00;101679.59;5045867;28;20238;-67
2023/12/15 06:43:38;;;;;;;11.83;10.40;;;;;;;3.98;100.00;101684.69;5052508;28;20244;-71
2023/12/15 06:46:04;;;;;;;14.23;9.40;;;;;;;3.86;100.00;101688.94;5052788;28;20237;-68
2023/12/15 06:48:29;;;;;;;14.67;10.80;;;;;;;4.10;100.00;101694.00;5053248;28;20200;-68
2023/12/15 06:50:54;;;;;;;12.30;9.83;;;;;;;4.16;100.00;101699.94;5050909;28;20225;-68
2023/12/15 06:53:19;;;;;;;15.17;10.60;;;;;;;4.15;100.00;101698.22;5067080;28;20639;-68
2023/12/15 06:55:45;;;;;;;12.60;9.53;;;;;;;4.11;100.00;101700.81;5073352;28;20183;-69
2023/12/15 06:58:10;;;;;;;10.90;9.60;;;;;;;4.09;100.00;101710.13;5055270;28;20191;-68
2023/12/15 07:00:35;;;;;;;14.00;9.70;;;;;;;4.10;100.00;101710.13;5047538;28;20224;-68
2023/12/15 07:03:00;;;;;;;10.80;9.60;;;;;;;4.15;100.00;101707.59;5068526;28;20184;-68
2023/12/15 07:05:26;;;;;;;13.03;9.23;;;;;;;4.18;100.00;101715.19;5071850;28;20176;-68
2023/12/15 07:07:51;;;;;;;10.40;8.63;;;;;;;4.16;100.00;101711.84;5055750;28;20204;-68
2023/12/15 07:10:16;;;;;;;10.10;8.73;;;;;;;4.21;100.00;101715.22;5055539;27;20176;-67
2023/12/15 07:12:42;;;;;;;12.33;9.40;;;;;;;4.31;100.00;101724.53;5086609;28;20198;-68
2023/12/15 07:15:07;;;;;;;10.77;8.73;;;;;;;4.33;100.00;101729.63;5072901;28;20172;-68
2023/12/15 07:17:33;;;;;;;12.40;8.73;;;;;;;4.17;100.00;101728.81;5058383;28;20188;-68
2023/12/15 07:19:58;;;;;;;9.57;8.30;;;;;;;4.01;100.00;101726.28;5051781;28;20356;-67
2023/12/15 07:22:23;;;;;;;11.87;8.67;;;;;;;3.87;100.00;101716.09;5058832;28;20632;-67
2023/12/15 07:24:48;;;;;;;10.37;8.90;;;;;;;3.87;100.00;101712.72;5052684;28;20181;-68
2023/12/15 07:27:14;;;;;;;9.23;8.23;;;;;;;3.96;100.00;101710.16;5052585;28;20226;-67
2023/12/15 07:29:40;;;;;;;9.43;8.23;;;;;;;4.01;100.00;101720.34;5053338;28;20189;-68
2023/12/15 07:32:05;;;;;;;9.53;8.50;;;;;;;4.07;100.00;101725.44;5058557;28;20253;-68
2023/12/15 07:34:31;;;;;;;13.67;9.43;;;;;;;4.01;100.00;101740.72;5065212;28;20608;-67
2023/12/15 07:36:56;;;;;;;11.00;8.93;;;;;;;3.98;100.00;101735.63;5070394;28;20175;-68
2023/12/15 07:39:21;;;;;;;10.90;8.67;;;;;;;3.85;100.00;101738.16;5059920;28;20218;-69
2023/12/15 07:41:50;;;;;;;16.43;8.80;;;;;;;3.91;100.00;101754.28;5053498;28;20217;-67
2023/12/15 07:44:15;;;;;;;14.03;9.93;;;;;;;3.82;100.00;101766.19;5054650;28;20197;-68
2023/12/15 07:46:41;;;;;;;10.53;9.20;;;;;;;3.92;100.00;101776.34;5052498;28;20192;-68
2023/12/15 07:49:08;;;;;;;12.07;9.80;;;;;;;3.92;100.00;101784.84;5054357;28;20295;-67
2023/12/15 07:51:33;;;;;;;12.23;9.47;;;;;;;3.86;100.00;101785.69;5062470;28;20234;-67
2023/12/15 07:53:58;;;;;;;10.70;9.23;;;;;;;3.97;100.00;101793.34;5075409;28;20173;-67
2023/12/15 07:56:27;;;;;;;13.20;9.73;;;;;;;4.18;100.00;101794.16;5069455;28;20659;-69
2023/12/15 07:58:53;;;;;;;14.13;9.30;;;;;;;4.35;100.00;101794.16;5054780;28;20185;-67
2023/12/15 08:01:20;;;;;;;11.30;9.83;;;;;;;4.53;100.00;101793.28;5071987;28;20291;-68
2023/12/15 08:03:46;;;;;;;11.53;10.10;;;;;;;4.66;100.00;101800.06;5060457;28;20733;-67
2023/12/15 08:06:15;;;;;;;12.87;10.03;;;;;;;4.46;100.00;101789.88;5066340;28;20181;-67
2023/12/15 08:08:45;;;;;;;12.87;9.43;;;;;;;4.47;100.00;101794.13;5063496;28;20627;-67
2023/12/15 08:11:11;;;;;;;16.47;10.33;;;;;;;4.41;100.00;101800.94;5044077;28;20298;-68
2023/12/15 08:13:37;;;;;;;10.20;8.97;;;;;;;4.59;100.00;101803.47;5049838;28;20180;-67
2023/12/15 08:16:03;;;;;;;13.43;9.67;;;;;;;4.83;100.00;101815.28;5055714;28;20214;-68
2023/12/15 08:18:29;;;;;;;11.53;9.47;;;;;;;5.04;100.00;101808.41;5061036;28;20180;-66
2023/12/15 08:20:54;;;;;;;13.03;9.80;;;;;;;5.07;100.00;101808.38;5046400;28;20229;-67
2023/12/15 08:23:19;;;;;;;11.63;9.33;;;;;;;5.15;100.00;101808.38;5072833;28;20185;-68
2023/12/15 08:25:44;;;;;;;10.87;9.40;;;;;;;5.22;100.00;101807.50;5057775;28;20181;-68
2023/12/15 08:28:11;;;;;;;11.40;8.87;;;;;;;4.86;100.00;101804.22;5056742;28;20566;-68
2023/12/15 08:30:37;;;;;;;10.83;8.90;;;;;;;5.07;100.00;101805.84;5032236;27;20266;-67
2023/12/15 08:33:02;;;;;;;11.70;9.53;;;;;;;5.05;100.00;101802.47;5064921;28;20205;-69
2023/12/15 08:35:27;;;;;;;12.53;9.33;;;;;;;5.25;100.00;101797.28;5067797;28;20542;-68
2023/12/15 08:37:54;;;;;;;12.70;8.77;;;;;;;5.45;100.00;101794.59;5067294;28;20184;-68
2023/12/15 08:40:20;;;;;;;12.13;9.17;;;;;;;5.70;100.00;101797.00;5058070;28;20204;-67
2023/12/15 08:42:45;;;;;;;16.10;9.63;;;;;;;6.06;100.00;101801.88;5064714;28;20268;-67
2023/12/15 08:45:10;;;;;;;13.13;9.87;;;;;;;6.45;100.00;101804.94;5062798;28;20184;-67
2023/12/15 08:47:36;;;;;;;10.57;8.33;;;;;;;6.67;100.00;101809.81;5068860;28;20193;-68
2023/12/15 08:50:01;;;;;;;9.90;8.70;;;;;;;6.84;100.00;101817.31;5068496;28;20200;-68
2023/12/15 08:52:26;;;;;;;11.60;8.40;;;;;;;6.76;100.00;101820.78;5056660;28;20225;-67
2023/12/15 08:54:51;;;;;;;12.90;9.87;;;;;;;6.73;100.00;101819.97;5060438;28;20181;-69
2023/12/15 08:57:17;;;;;;;10.23;9.23;;;;;;;6.96;100.00;101819.72;5061163;28;20186;-67
2023/12/15 08:59:42;;;;;;;11.27;8.60;;;;;;;6.82;100.00;101827.53;5066800;28;20742;-68
2023/12/15 09:02:08;;;;;;;10.47;9.27;;;;;;;6.86;100.00;101821.53;5057252;28;20559;-70
2023/12/15 09:04:34;;;;;;;8.63;7.77;;;;;;;7.11;100.00;101818.69;5053978;28;20185;-68
2023/12/15 09:06:59;;;;;;;14.37;9.03;;;;;;;7.11;100.00;101816.13;5063304;28;20177;-69
2023/12/15 09:09:25;;;;;;;12.10;8.43;;;;;;;6.87;100.00;101822.38;5055811;28;20208;-68
2023/12/15 09:11:50;;;;;;;9.83;8.73;;;;;;;7.01;100.00;101828.19;5053292;28;20212;-68
2023/12/15 09:14:16;;;;;;;10.77;8.60;;;;;;;6.99;100.00;101836.75;5058582;28;20343;-68
2023/12/15 09:16:42;;;;;;;9.87;7.43;;;;;;;7.00;100.00;101841.84;5065129;28;20666;-68
2023/12/15 09:19:08;;;;;;;12.60;7.87;;;;;;;6.89;100.00;101857.31;5063118;28;20316;-69
2023/12/15 09:21:33;;;;;;;8.80;7.10;;;;;;;7.09;100.00;101857.09;5045299;28;20640;-69
2023/12/15 09:23:58;;;;;;;9.40;7.00;;;;;;;7.09;100.00;101854.53;5066456;28;20184;-70
2023/12/15 09:26:24;;;;;;;13.40;8.03;;;;;;;7.18;100.00;101860.41;5057900;28;20256;-69
2023/12/15 09:28:50;;;;;;;15.27;8.37;;;;;;;7.18;100.00;101863.81;5067246;28;20242;-70
2023/12/15 09:31:15;;;;;;;14.97;8.07;;;;;;;7.33;100.00;101870.47;5065000;27;20224;-70
2023/12/15 09:33:40;;;;;;;12.03;8.03;;;;;;;7.32;100.00;101881.56;5076999;28;20180;-69
2023/12/15 09:36:06;;;;;;;8.47;7.50;;;;;;;7.30;100.00;101890.97;5065395;28;20181;-69
2023/12/15 09:38:31;;;;;;;9.93;8.20;;;;;;;7.34;100.00;101886.66;5061358;28;20180;-68
2023/12/15 09:40:56;;;;;;;10.63;7.37;;;;;;;7.40;100.00;101887.41;5058823;28;20263;-68
2023/12/15 09:43:22;;;;;;;8.20;7.13;;;;;;;7.20;100.00;101892.78;5070612;28;20185;-68
2023/12/15 09:45:47;;;;;;;7.87;6.13;;;;;;;7.30;100.00;101885.84;5060737;28;20234;-68
2023/12/15 09:48:14;;;;;;;11.77;7.60;;;;;;;7.29;100.00;101893.56;5053517;28;20201;-68
2023/12/15 09:50:42;;;;;;;9.27;6.90;;;;;;;7.15;100.00;101898.84;5063902;28;20228;-68
2023/12/15 09:53:08;;;;;;;11.73;7.40;;;;;;;7.09;100.00;101899.75;5072175;28;20181;-68
2023/12/15 09:55:35;;;;;;;8.87;7.07;;;;;;;6.88;100.00;101899.09;5070698;28;20191;-67
2023/12/15 09:58:00;;;;;;;7.70;6.57;;;;;;;6.89;100.00;101911.03;5054747;28;20192;-65
2023/12/15 10:00:25;;;;;;;11.27;7.10;;;;;;;7.05;100.00;101911.72;5059748;28;20224;-65
2023/12/15 10:02:50;;;;;;;8.50;7.20;;;;;;;6.98;100.00;101916.94;5070876;28;20185;-64
2023/12/15 10:05:17;;;;;;;8.97;7.17;;;;;;;6.98;100.00;101914.38;5068218;28;20185;-64
2023/12/15 10:07:42;;;;;;;11.23;8.10;;;;;;;6.91;100.00;101919.53;5071737;28;20246;-66
2023/12/15 10:10:08;;;;;;;7.90;7.03;;;;;;;7.12;100.00;101922.75;5064371;28;20177;-65
2023/12/15 10:12:33;;;;;;;8.30;7.20;;;;;;;7.30;100.00;101921.69;5087247;28;20181;-65
2023/12/15 10:14:58;;;;;;;12.17;8.23;;;;;;;7.36;100.00;101920.78;5073447;28;20226;-66
2023/12/15 10:17:23;;;;;;;10.27;8.27;;;;;;;7.44;100.00;101921.50;5069505;28;20648;-68
2023/12/15 10:19:49;;;;;;;8.77;7.40;;;;;;;7.46;100.00;101921.53;5072073;28;20228;-65
2023/12/15 10:22:14;;;;;;;9.30;7.60;;;;;;;7.38;100.00;101932.69;5072599;28;20302;-65
2023/12/15 10:24:39;;;;;;;7.67;6.87;;;;;;;7.26;100.00;101937.97;5070562;28;20184;-69
2023/12/15 10:27:08;;;;;;;7.50;6.67;;;;;;;7.19;100.00;101937.16;5067284;28;20276;-65
2023/12/15 10:29:37;;;;;;;8.13;5.87;;;;;;;7.36;100.00;101951.50;5070345;28;20200;-66
2023/12/15 10:32:04;;;;;;;8.30;6.43;;;;;;;7.59;100.00;101951.22;5047155;28;20233;-66
2023/12/15 10:34:30;;;;;;;7.97;6.70;;;;;;;7.47;100.00;101946.22;5061115;28;20180;-67
2023/12/15 10:36:55;;;;;;;6.10;5.47;;;;;;;7.31;100.00;101956.66;5068765;28;20181;-65
2023/12/15 10:39:22;;;;;;;6.87;6.20;;;;;;;7.36;100.00;101967.69;5070871;28;20327;-67
2023/12/15 10:41:48;;;;;;;6.93;6.23;;;;;;;7.39;100.00;101960.00;5070622;28;20262;-65
2023/12/15 10:44:14;;;;;;;6.40;5.80;;;;;;;7.56;100.00;101964.91;5063948;28;20185;-65
2023/12/15 10:46:42;;;;;;;7.43;5.87;;;;;;;7.47;100.00;101970.16;5066624;28;20327;-66
2023/12/15 10:49:09;;;;;;;6.00;5.17;;;;;;;7.48;100.00;101966.72;5069685;28;20203;-64
2023/12/15 10:51:46;;;;;;;8.73;5.97;;;;;;;7.46;100.00;101970.16;5058611;28;20687;-65
2023/12/15 10:54:12;;;;;;;7.67;5.33;;;;;;;7.51;100.00;101966.66;5049485;28;20699;-66
2023/12/15 10:56:38;;;;;;;6.57;5.60;;;;;;;7.45;100.00;101971.88;5063474;28;20219;-67
2023/12/15 10:59:07;;;;;;;5.80;5.20;;;;;;;7.42;100.00;101966.78;5068180;28;20172;-67
2023/12/15 11:01:35;;;;;;;6.27;5.60;;;;;;;7.60;100.00;101968.28;5044754;28;20689;-67
2023/12/15 11:04:00;;;;;;;6.27;5.60;;;;;;;7.69;100.00;101969.88;5065042;28;20666;-66
2023/12/15 11:06:32;;;;;;;5.80;5.23;;;;;;;7.62;100.00;101965.72;5057817;28;20185;-65
2023/12/15 11:09:04;;;;;;;8.87;5.83;;;;;;;7.78;100.00;101966.34;5067430;28;20711;-65